Terminal Aerodrome Forecast
Issued by NWS

Home | Current Version | Previous Version | Graphics & Text | Print | Product List | Glossary On
Versions: 1 2 3 4 5 6 7 8 9 10 11 12 13 14
724
FTUS43 KIWX 172330
TAFSBN
TAF
KSBN 172330Z 1800/1824 34004KT P6SM FEW200
     FM180800 00000KT 3SM BR FEW120
     FM181400 VRB03KT P6SM FEW050 SCT120=

USA.gov is the U.S. government's official web portal to all federal, state and local government web resources and services.